Terminal Aerodrome Forecast
Issued by NWS

Home | Current Version | Previous Version | Text Only | Print | Product List | Glossary On
Versions: 1 2 3 4 5 6 7 8 9 10 11 12 13 14 15 16 17 18 19 20 21 22 23 24 25 26 27 28 29 30 31 32 33 34 35 36 37 38
000
FTUS45 KGJT 250525
TAFASE
TAF
KASE 250525Z 2506/2606 20005KT P6SM VCSH SCT080 BKN100
     FM251200 VRB03KT P6SM SCT080 BKN130
     FM251900 34008KT P6SM VCTS BKN080CB BKN110
     FM260000 13006KT P6SM VCTS BKN090CB BKN140=

USA.gov is the U.S. government's official web portal to all federal, state and local government web resources and services.